sensor_id;sensor_type;location;lat;lon;timestamp;temperature;humidity
34406;DHT22;20658;45.630;8.886;2023-11-21T00:00:55;9.50;99.90
34406;DHT22;20658;45.630;8.886;2023-11-21T00:03:28;9.50;99.90
34406;DHT22;20658;45.630;8.886;2023-11-21T00:06:02;9.50;99.90
34406;DHT22;20658;45.630;8.886;2023-11-21T00:08:35;9.50;99.90
34406;DHT22;20658;45.630;8.886;2023-11-21T00:11:10;9.50;99.90
34406;DHT22;20658;45.630;8.886;2023-11-21T00:13:43;9.50;99.90
34406;DHT22;20658;45.630;8.886;2023-11-21T00:16:17;9.50;99.90
34406;DHT22;20658;45.630;8.886;2023-11-21T00:18:50;9.50;99.90
34406;DHT22;20658;45.630;8.886;2023-11-21T00:21:24;9.50;99.90
34406;DHT22;20658;45.630;8.886;2023-11-21T00:23:57;9.50;99.90
34406;DHT22;20658;45.630;8.886;2023-11-21T00:26:32;9.80;99.90
34406;DHT22;20658;45.630;8.886;2023-11-21T00:29:08;9.50;99.90
34406;DHT22;20658;45.630;8.886;2023-11-21T00:31:42;9.50;99.90
34406;DHT22;20658;45.630;8.886;2023-11-21T00:34:16;9.50;99.90
34406;DHT22;20658;45.630;8.886;2023-11-21T00:36:49;9.50;99.90
34406;DHT22;20658;45.630;8.886;2023-11-21T00:39:23;9.50;99.90
34406;DHT22;20658;45.630;8.886;2023-11-21T00:41:58;9.50;99.90
34406;DHT22;20658;45.630;8.886;2023-11-21T00:44:27;9.40;99.90
34406;DHT22;20658;45.630;8.886;2023-11-21T00:46:55;9.40;99.90
34406;DHT22;20658;45.630;8.886;2023-11-21T00:49:28;9.40;99.90
34406;DHT22;20658;45.630;8.886;2023-11-21T00:52:02;9.40;99.90
34406;DHT22;20658;45.630;8.886;2023-11-21T00:54:35;9.40;99.90
34406;DHT22;20658;45.630;8.886;2023-11-21T00:57:10;9.40;99.90
34406;DHT22;20658;45.630;8.886;2023-11-21T00:59:44;9.40;99.90
34406;DHT22;20658;45.630;8.886;2023-11-21T01:02:17;9.80;99.90
34406;DHT22;20658;45.630;8.886;2023-11-21T01:04:51;9.40;99.90
34406;DHT22;20658;45.630;8.886;2023-11-21T01:07:24;9.40;99.90
34406;DHT22;20658;45.630;8.886;2023-11-21T01:09:59;9.40;99.90
34406;DHT22;20658;45.630;8.886;2023-11-21T01:12:34;9.40;99.90
34406;DHT22;20658;45.630;8.886;2023-11-21T01:15:08;9.40;99.90
34406;DHT22;20658;45.630;8.886;2023-11-21T01:17:44;9.40;99.90
34406;DHT22;20658;45.630;8.886;2023-11-21T01:20:17;9.40;99.90
34406;DHT22;20658;45.630;8.886;2023-11-21T01:22:50;9.30;99.90
34406;DHT22;20658;45.630;8.886;2023-11-21T01:25:27;9.70;99.90
34406;DHT22;20658;45.630;8.886;2023-11-21T01:28:02;9.30;99.90
34406;DHT22;20658;45.630;8.886;2023-11-21T01:30:35;9.30;99.90
34406;DHT22;20658;45.630;8.886;2023-11-21T01:33:09;9.40;99.90
34406;DHT22;20658;45.630;8.886;2023-11-21T01:35:42;9.40;99.90
34406;DHT22;20658;45.630;8.886;2023-11-21T01:38:18;9.40;99.90
34406;DHT22;20658;45.630;8.886;2023-11-21T01:40:51;9.80;99.90
34406;DHT22;20658;45.630;8.886;2023-11-21T01:43:26;9.40;99.90
34406;DHT22;20658;45.630;8.886;2023-11-21T01:46:00;9.30;99.90
34406;DHT22;20658;45.630;8.886;2023-11-21T01:48:28;9.60;99.90
34406;DHT22;20658;45.630;8.886;2023-11-21T01:50:57;9.40;99.90
34406;DHT22;20658;45.630;8.886;2023-11-21T01:53:30;9.40;99.90
34406;DHT22;20658;45.630;8.886;2023-11-21T01:56:05;9.40;99.90
34406;DHT22;20658;45.630;8.886;2023-11-21T01:58:40;9.40;99.90
34406;DHT22;20658;45.630;8.886;2023-11-21T02:01:10;9.40;99.90
34406;DHT22;20658;45.630;8.886;2023-11-21T02:03:38;9.40;99.90
34406;DHT22;20658;45.630;8.886;2023-11-21T02:06:08;9.40;99.90
34406;DHT22;20658;45.630;8.886;2023-11-21T02:08:36;9.40;99.90
34406;DHT22;20658;45.630;8.886;2023-11-21T02:11:11;9.40;99.90
34406;DHT22;20658;45.630;8.886;2023-11-21T02:13:42;9.40;99.90
34406;DHT22;20658;45.630;8.886;2023-11-21T02:16:17;9.40;99.90
34406;DHT22;20658;45.630;8.886;2023-11-21T02:18:46;9.40;99.90
34406;DHT22;20658;45.630;8.886;2023-11-21T02:21:20;9.40;99.90
34406;DHT22;20658;45.630;8.886;2023-11-21T02:23:50;9.40;99.90
34406;DHT22;20658;45.630;8.886;2023-11-21T02:26:18;9.40;99.90
34406;DHT22;20658;45.630;8.886;2023-11-21T02:28:47;9.40;99.90
34406;DHT22;20658;45.630;8.886;2023-11-21T02:31:15;9.50;99.90
34406;DHT22;20658;45.630;8.886;2023-11-21T02:33:48;9.50;99.90
34406;DHT22;20658;45.630;8.886;2023-11-21T02:36:22;9.40;99.90
34406;DHT22;20658;45.630;8.886;2023-11-21T02:38:57;9.40;99.90
34406;DHT22;20658;45.630;8.886;2023-11-21T02:41:30;9.40;99.90
34406;DHT22;20658;45.630;8.886;2023-11-21T02:44:04;9.40;99.90
34406;DHT22;20658;45.630;8.886;2023-11-21T02:46:38;9.40;99.90
34406;DHT22;20658;45.630;8.886;2023-11-21T02:49:12;9.40;99.90
34406;DHT22;20658;45.630;8.886;2023-11-21T02:51:45;9.40;99.90
34406;DHT22;20658;45.630;8.886;2023-11-21T02:54:20;9.40;99.90
34406;DHT22;20658;45.630;8.886;2023-11-21T02:56:53;9.50;99.90
34406;DHT22;20658;45.630;8.886;2023-11-21T02:59:27;9.40;99.90
34406;DHT22;20658;45.630;8.886;2023-11-21T03:01:55;9.50;99.90
34406;DHT22;20658;45.630;8.886;2023-11-21T03:04:29;9.50;99.90
34406;DHT22;20658;45.630;8.886;2023-11-21T03:07:04;9.40;99.90
34406;DHT22;20658;45.630;8.886;2023-11-21T03:09:39;9.40;99.90
34406;DHT22;20658;45.630;8.886;2023-11-21T03:12:12;9.40;99.90
34406;DHT22;20658;45.630;8.886;2023-11-21T03:14:45;9.40;99.90
34406;DHT22;20658;45.630;8.886;2023-11-21T03:17:15;9.50;99.90
34406;DHT22;20658;45.630;8.886;2023-11-21T03:19:43;9.40;99.90
34406;DHT22;20658;45.630;8.886;2023-11-21T03:22:11;9.40;99.90
34406;DHT22;20658;45.630;8.886;2023-11-21T03:24:41;9.40;99.90
34406;DHT22;20658;45.630;8.886;2023-11-21T03:27:15;9.40;99.90
34406;DHT22;20658;45.630;8.886;2023-11-21T03:29:48;9.50;99.90
34406;DHT22;20658;45.630;8.886;2023-11-21T03:32:22;9.50;99.90
34406;DHT22;20658;45.630;8.886;2023-11-21T03:34:58;9.50;99.90
34406;DHT22;20658;45.630;8.886;2023-11-21T03:37:33;9.50;99.90
34406;DHT22;20658;45.630;8.886;2023-11-21T03:40:09;9.50;99.90
34406;DHT22;20658;45.630;8.886;2023-11-21T03:42:44;9.50;99.90
34406;DHT22;20658;45.630;8.886;2023-11-21T03:45:20;9.50;99.90
34406;DHT22;20658;45.630;8.886;2023-11-21T03:47:53;9.50;99.90
34406;DHT22;20658;45.630;8.886;2023-11-21T03:50:28;9.50;99.90
34406;DHT22;20658;45.630;8.886;2023-11-21T03:53:01;9.40;99.90
34406;DHT22;20658;45.630;8.886;2023-11-21T03:55:36;9.50;99.90
34406;DHT22;20658;45.630;8.886;2023-11-21T03:58:11;9.40;99.90
34406;DHT22;20658;45.630;8.886;2023-11-21T04:00:46;9.40;99.90
34406;DHT22;20658;45.630;8.886;2023-11-21T04:03:20;9.40;99.90
34406;DHT22;20658;45.630;8.886;2023-11-21T04:08:42;9.50;99.90
34406;DHT22;20658;45.630;8.886;2023-11-21T04:11:17;10.00;99.90
34406;DHT22;20658;45.630;8.886;2023-11-21T04:13:50;9.40;99.90
34406;DHT22;20658;45.630;8.886;2023-11-21T04:16:24;9.50;99.90
34406;DHT22;20658;45.630;8.886;2023-11-21T04:18:57;9.40;99.90
34406;DHT22;20658;45.630;8.886;2023-11-21T04:21:30;9.40;99.90
34406;DHT22;20658;45.630;8.886;2023-11-21T04:24:06;9.40;99.90
34406;DHT22;20658;45.630;8.886;2023-11-21T04:26:41;9.40;99.90
34406;DHT22;20658;45.630;8.886;2023-11-21T04:29:14;9.40;99.90
34406;DHT22;20658;45.630;8.886;2023-11-21T04:31:48;9.40;99.90
34406;DHT22;20658;45.630;8.886;2023-11-21T04:34:21;9.40;99.90
34406;DHT22;20658;45.630;8.886;2023-11-21T04:36:55;9.60;99.90
34406;DHT22;20658;45.630;8.886;2023-11-21T04:39:28;9.40;99.90
34406;DHT22;20658;45.630;8.886;2023-11-21T04:42:03;9.40;99.90
34406;DHT22;20658;45.630;8.886;2023-11-21T04:44:36;9.40;99.90
34406;DHT22;20658;45.630;8.886;2023-11-21T04:47:12;9.40;99.90
34406;DHT22;20658;45.630;8.886;2023-11-21T04:49:46;9.30;99.90
34406;DHT22;20658;45.630;8.886;2023-11-21T04:52:19;9.30;99.90
34406;DHT22;20658;45.630;8.886;2023-11-21T04:54:53;9.30;99.90
34406;DHT22;20658;45.630;8.886;2023-11-21T04:57:30;9.30;99.90
34406;DHT22;20658;45.630;8.886;2023-11-21T05:00:04;9.30;99.90
34406;DHT22;20658;45.630;8.886;2023-11-21T05:02:40;9.30;99.90
34406;DHT22;20658;45.630;8.886;2023-11-21T05:05:13;9.30;99.90
34406;DHT22;20658;45.630;8.886;2023-11-21T05:07:47;9.30;99.90
34406;DHT22;20658;45.630;8.886;2023-11-21T05:10:20;9.20;99.90
34406;DHT22;20658;45.630;8.886;2023-11-21T05:12:50;9.20;99.90
34406;DHT22;20658;45.630;8.886;2023-11-21T05:15:24;9.20;99.90
34406;DHT22;20658;45.630;8.886;2023-11-21T05:17:59;9.20;99.90
34406;DHT22;20658;45.630;8.886;2023-11-21T05:20:28;9.30;99.90
34406;DHT22;20658;45.630;8.886;2023-11-21T05:22:56;9.30;99.90
34406;DHT22;20658;45.630;8.886;2023-11-21T05:25:30;9.30;99.90
34406;DHT22;20658;45.630;8.886;2023-11-21T05:28:05;9.50;99.90
34406;DHT22;20658;45.630;8.886;2023-11-21T05:30:39;9.20;99.90
34406;DHT22;20658;45.630;8.886;2023-11-21T05:33:07;9.20;99.90
34406;DHT22;20658;45.630;8.886;2023-11-21T05:35:36;9.20;99.90
34406;DHT22;20658;45.630;8.886;2023-11-21T05:38:10;9.20;99.90
34406;DHT22;20658;45.630;8.886;2023-11-21T05:40:43;9.20;99.90
34406;DHT22;20658;45.630;8.886;2023-11-21T05:43:18;9.10;99.90
34406;DHT22;20658;45.630;8.886;2023-11-21T05:45:51;9.10;99.90
34406;DHT22;20658;45.630;8.886;2023-11-21T05:48:24;9.00;99.90
34406;DHT22;20658;45.630;8.886;2023-11-21T05:50:58;9.00;99.90
34406;DHT22;20658;45.630;8.886;2023-11-21T05:53:33;9.00;99.90
34406;DHT22;20658;45.630;8.886;2023-11-21T05:56:07;9.00;99.90
34406;DHT22;20658;45.630;8.886;2023-11-21T05:58:42;9.00;99.90
34406;DHT22;20658;45.630;8.886;2023-11-21T06:01:11;9.00;99.90
34406;DHT22;20658;45.630;8.886;2023-11-21T06:03:44;9.00;99.90
34406;DHT22;20658;45.630;8.886;2023-11-21T06:06:18;9.00;99.90
34406;DHT22;20658;45.630;8.886;2023-11-21T06:08:54;9.10;99.90
34406;DHT22;20658;45.630;8.886;2023-11-21T06:11:27;8.90;99.90
34406;DHT22;20658;45.630;8.886;2023-11-21T06:13:57;8.90;99.90
34406;DHT22;20658;45.630;8.886;2023-11-21T06:16:30;8.90;99.90
34406;DHT22;20658;45.630;8.886;2023-11-21T06:19:04;8.90;99.90
34406;DHT22;20658;45.630;8.886;2023-11-21T06:21:37;8.90;99.90
34406;DHT22;20658;45.630;8.886;2023-11-21T06:24:11;8.80;99.90
34406;DHT22;20658;45.630;8.886;2023-11-21T06:26:44;8.80;99.90
34406;DHT22;20658;45.630;8.886;2023-11-21T06:29:21;8.80;99.90
34406;DHT22;20658;45.630;8.886;2023-11-21T06:31:54;8.70;99.90
34406;DHT22;20658;45.630;8.886;2023-11-21T06:34:28;8.70;99.90
34406;DHT22;20658;45.630;8.886;2023-11-21T06:37:02;8.70;99.90
34406;DHT22;20658;45.630;8.886;2023-11-21T06:39:30;8.70;99.90
34406;DHT22;20658;45.630;8.886;2023-11-21T06:42:04;8.60;99.90
34406;DHT22;20658;45.630;8.886;2023-11-21T06:44:39;8.70;99.90
34406;DHT22;20658;45.630;8.886;2023-11-21T06:47:13;8.60;99.90
34406;DHT22;20658;45.630;8.886;2023-11-21T06:49:43;8.60;99.90
34406;DHT22;20658;45.630;8.886;2023-11-21T06:52:14;8.60;99.90
34406;DHT22;20658;45.630;8.886;2023-11-21T06:54:48;8.60;99.90
34406;DHT22;20658;45.630;8.886;2023-11-21T06:57:23;8.50;99.90
34406;DHT22;20658;45.630;8.886;2023-11-21T06:59:58;8.50;99.90
34406;DHT22;20658;45.630;8.886;2023-11-21T07:02:31;8.40;99.90
34406;DHT22;20658;45.630;8.886;2023-11-21T07:05:04;8.40;99.90
34406;DHT22;20658;45.630;8.886;2023-11-21T07:07:38;8.40;99.90
34406;DHT22;20658;45.630;8.886;2023-11-21T07:10:12;8.30;99.90
34406;DHT22;20658;45.630;8.886;2023-11-21T07:12:45;8.30;99.90
34406;DHT22;20658;45.630;8.886;2023-11-21T07:15:20;8.30;99.90
34406;DHT22;20658;45.630;8.886;2023-11-21T07:17:54;8.30;99.90
34406;DHT22;20658;45.630;8.886;2023-11-21T07:20:27;8.30;99.90
34406;DHT22;20658;45.630;8.886;2023-11-21T07:23:02;8.20;99.90
34406;DHT22;20658;45.630;8.886;2023-11-21T07:25:35;8.20;99.90
34406;DHT22;20658;45.630;8.886;2023-11-21T07:28:09;8.20;99.90
34406;DHT22;20658;45.630;8.886;2023-11-21T07:30:44;8.20;99.90
34406;DHT22;20658;45.630;8.886;2023-11-21T07:33:17;8.30;99.90
34406;DHT22;20658;45.630;8.886;2023-11-21T07:35:50;8.30;99.90
34406;DHT22;20658;45.630;8.886;2023-11-21T07:38:23;8.30;99.90
34406;DHT22;20658;45.630;8.886;2023-11-21T07:40:57;8.20;99.90
34406;DHT22;20658;45.630;8.886;2023-11-21T07:43:33;8.30;99.90
34406;DHT22;20658;45.630;8.886;2023-11-21T07:46:08;8.30;99.90
34406;DHT22;20658;45.630;8.886;2023-11-21T07:48:42;8.30;99.90
34406;DHT22;20658;45.630;8.886;2023-11-21T07:51:10;8.30;99.90
34406;DHT22;20658;45.630;8.886;2023-11-21T07:53:45;8.80;99.90
34406;DHT22;20658;45.630;8.886;2023-11-21T07:56:18;8.30;99.90
34406;DHT22;20658;45.630;8.886;2023-11-21T07:58:51;8.40;99.90
34406;DHT22;20658;45.630;8.886;2023-11-21T08:01:26;8.40;99.90
34406;DHT22;20658;45.630;8.886;2023-11-21T08:03:55;8.50;99.90
34406;DHT22;20658;45.630;8.886;2023-11-21T08:06:28;8.60;99.90
34406;DHT22;20658;45.630;8.886;2023-11-21T08:09:02;8.70;99.90
34406;DHT22;20658;45.630;8.886;2023-11-21T08:11:36;8.80;99.90
34406;DHT22;20658;45.630;8.886;2023-11-21T08:14:10;8.80;99.90
34406;DHT22;20658;45.630;8.886;2023-11-21T08:16:45;8.80;99.90
34406;DHT22;20658;45.630;8.886;2023-11-21T08:19:14;8.80;99.90
34406;DHT22;20658;45.630;8.886;2023-11-21T08:21:48;8.80;99.90
34406;DHT22;20658;45.630;8.886;2023-11-21T08:24:21;8.80;99.90
34406;DHT22;20658;45.630;8.886;2023-11-21T08:26:50;8.80;99.90
34406;DHT22;20658;45.630;8.886;2023-11-21T08:29:24;8.80;99.90
34406;DHT22;20658;45.630;8.886;2023-11-21T08:31:58;8.70;99.90
34406;DHT22;20658;45.630;8.886;2023-11-21T08:34:27;8.70;99.90
34406;DHT22;20658;45.630;8.886;2023-11-21T08:37:00;8.80;99.90
34406;DHT22;20658;45.630;8.886;2023-11-21T08:39:33;9.30;99.90
34406;DHT22;20658;45.630;8.886;2023-11-21T08:42:09;9.10;99.90
34406;DHT22;20658;45.630;8.886;2023-11-21T08:44:42;9.10;99.90
34406;DHT22;20658;45.630;8.886;2023-11-21T08:47:12;9.10;99.90
34406;DHT22;20658;45.630;8.886;2023-11-21T08:49:41;9.20;99.90
34406;DHT22;20658;45.630;8.886;2023-11-21T08:52:14;9.30;99.90
34406;DHT22;20658;45.630;8.886;2023-11-21T08:54:48;9.40;99.90
34406;DHT22;20658;45.630;8.886;2023-11-21T08:57:27;9.40;99.90
34406;DHT22;20658;45.630;8.886;2023-11-21T09:00:01;9.50;99.90
34406;DHT22;20658;45.630;8.886;2023-11-21T09:02:39;9.70;99.90
34406;DHT22;20658;45.630;8.886;2023-11-21T09:05:14;9.70;99.90
34406;DHT22;20658;45.630;8.886;2023-11-21T09:07:48;9.90;99.90
34406;DHT22;20658;45.630;8.886;2023-11-21T09:10:22;9.90;99.90
34406;DHT22;20658;45.630;8.886;2023-11-21T09:12:57;10.10;99.90
34406;DHT22;20658;45.630;8.886;2023-11-21T09:15:25;10.10;99.90
34406;DHT22;20658;45.630;8.886;2023-11-21T09:18:00;10.20;99.90
34406;DHT22;20658;45.630;8.886;2023-11-21T09:20:34;10.60;99.90
34406;DHT22;20658;45.630;8.886;2023-11-21T09:23:07;10.30;99.90
34406;DHT22;20658;45.630;8.886;2023-11-21T09:25:41;10.50;99.90
34406;DHT22;20658;45.630;8.886;2023-11-21T09:28:18;10.60;99.90
34406;DHT22;20658;45.630;8.886;2023-11-21T09:30:46;10.80;99.90
34406;DHT22;20658;45.630;8.886;2023-11-21T09:33:22;10.80;99.90
34406;DHT22;20658;45.630;8.886;2023-11-21T09:35:56;10.90;99.90
34406;DHT22;20658;45.630;8.886;2023-11-21T09:38:30;10.90;99.90
34406;DHT22;20658;45.630;8.886;2023-11-21T09:41:04;11.10;99.90
34406;DHT22;20658;45.630;8.886;2023-11-21T09:43:39;11.00;99.90
34406;DHT22;20658;45.630;8.886;2023-11-21T09:46:13;11.00;99.90
34406;DHT22;20658;45.630;8.886;2023-11-21T09:48:53;11.00;99.90
34406;DHT22;20658;45.630;8.886;2023-11-21T09:51:30;11.20;99.90
34406;DHT22;20658;45.630;8.886;2023-11-21T09:54:05;11.20;99.90
34406;DHT22;20658;45.630;8.886;2023-11-21T09:56:40;11.30;99.90
34406;DHT22;20658;45.630;8.886;2023-11-21T09:59:15;11.50;99.90
34406;DHT22;20658;45.630;8.886;2023-11-21T10:01:49;11.60;99.90
34406;DHT22;20658;45.630;8.886;2023-11-21T10:04:19;11.60;99.90
34406;DHT22;20658;45.630;8.886;2023-11-21T10:06:53;11.50;99.90
34406;DHT22;20658;45.630;8.886;2023-11-21T10:09:23;11.60;99.90
34406;DHT22;20658;45.630;8.886;2023-11-21T10:11:54;11.80;99.90
34406;DHT22;20658;45.630;8.886;2023-11-21T10:14:29;12.20;99.90
34406;DHT22;20658;45.630;8.886;2023-11-21T10:16:58;12.30;99.90
34406;DHT22;20658;45.630;8.886;2023-11-21T10:19:33;12.40;99.90
34406;DHT22;20658;45.630;8.886;2023-11-21T10:22:08;12.10;99.90
34406;DHT22;20658;45.630;8.886;2023-11-21T10:24:37;12.10;99.90
34406;DHT22;20658;45.630;8.886;2023-11-21T10:27:05;12.10;99.90
34406;DHT22;20658;45.630;8.886;2023-11-21T10:29:39;12.10;99.90
34406;DHT22;20658;45.630;8.886;2023-11-21T10:32:08;12.40;99.90
34406;DHT22;20658;45.630;8.886;2023-11-21T10:34:55;12.30;99.90
34406;DHT22;20658;45.630;8.886;2023-11-21T10:37:29;12.40;99.90
34406;DHT22;20658;45.630;8.886;2023-11-21T10:40:03;12.50;99.90
34406;DHT22;20658;45.630;8.886;2023-11-21T10:42:32;12.50;99.90
34406;DHT22;20658;45.630;8.886;2023-11-21T10:45:00;12.60;99.80
34406;DHT22;20658;45.630;8.886;2023-11-21T10:47:35;12.80;99.50
34406;DHT22;20658;45.630;8.886;2023-11-21T10:50:10;12.60;98.40
34406;DHT22;20658;45.630;8.886;2023-11-21T10:52:39;12.50;98.50
34406;DHT22;20658;45.630;8.886;2023-11-21T10:55:18;13.00;98.60
34406;DHT22;20658;45.630;8.886;2023-11-21T10:57:54;12.80;97.40
34406;DHT22;20658;45.630;8.886;2023-11-21T11:00:22;12.90;97.10
34406;DHT22;20658;45.630;8.886;2023-11-21T11:02:58;13.00;97.10
34406;DHT22;20658;45.630;8.886;2023-11-21T11:05:33;13.00;96.20
34406;DHT22;20658;45.630;8.886;2023-11-21T11:08:08;13.00;96.00
34406;DHT22;20658;45.630;8.886;2023-11-21T11:10:40;13.00;96.00
34406;DHT22;20658;45.630;8.886;2023-11-21T11:13:08;13.00;95.50
34406;DHT22;20658;45.630;8.886;2023-11-21T11:15:42;13.10;96.10
34406;DHT22;20658;45.630;8.886;2023-11-21T11:18:17;13.30;94.90
34406;DHT22;20658;45.630;8.886;2023-11-21T11:20:51;13.40;94.70
34406;DHT22;20658;45.630;8.886;2023-11-21T11:23:33;13.30;93.70
34406;DHT22;20658;45.630;8.886;2023-11-21T11:26:24;13.20;94.20
34406;DHT22;20658;45.630;8.886;2023-11-21T11:29:04;13.30;94.60
34406;DHT22;20658;45.630;8.886;2023-11-21T11:31:51;13.30;94.10
34406;DHT22;20658;45.630;8.886;2023-11-21T11:34:30;13.30;94.40
34406;DHT22;20658;45.630;8.886;2023-11-21T11:37:07;13.50;93.90
34406;DHT22;20658;45.630;8.886;2023-11-21T11:39:42;13.50;93.80
34406;DHT22;20658;45.630;8.886;2023-11-21T11:42:18;13.60;93.50
34406;DHT22;20658;45.630;8.886;2023-11-21T11:44:52;13.70;92.60
34406;DHT22;20658;45.630;8.886;2023-11-21T11:47:28;13.80;91.80
34406;DHT22;20658;45.630;8.886;2023-11-21T11:50:06;13.80;91.70
34406;DHT22;20658;45.630;8.886;2023-11-21T11:52:45;13.80;90.80
34406;DHT22;20658;45.630;8.886;2023-11-21T11:55:15;13.70;91.20
34406;DHT22;20658;45.630;8.886;2023-11-21T11:57:51;13.70;91.60
34406;DHT22;20658;45.630;8.886;2023-11-21T12:00:23;14.10;91.70
34406;DHT22;20658;45.630;8.886;2023-11-21T12:03:04;13.80;91.60
34406;DHT22;20658;45.630;8.886;2023-11-21T12:05:40;13.80;91.70
34406;DHT22;20658;45.630;8.886;2023-11-21T12:08:13;13.90;91.30
34406;DHT22;20658;45.630;8.886;2023-11-21T12:10:49;13.90;91.30
34406;DHT22;20658;45.630;8.886;2023-11-21T12:13:28;14.00;91.00
34406;DHT22;20658;45.630;8.886;2023-11-21T12:16:01;13.90;91.90
34406;DHT22;20658;45.630;8.886;2023-11-21T12:18:35;13.90;92.30
34406;DHT22;20658;45.630;8.886;2023-11-21T12:21:05;14.00;92.60
34406;DHT22;20658;45.630;8.886;2023-11-21T12:23:38;13.70;92.40
34406;DHT22;20658;45.630;8.886;2023-11-21T12:26:11;13.90;92.80
34406;DHT22;20658;45.630;8.886;2023-11-21T12:28:52;13.90;92.30
34406;DHT22;20658;45.630;8.886;2023-11-21T12:31:28;13.90;92.60
34406;DHT22;20658;45.630;8.886;2023-11-21T12:34:02;13.90;92.20
34406;DHT22;20658;45.630;8.886;2023-11-21T12:36:36;13.80;92.00
34406;DHT22;20658;45.630;8.886;2023-11-21T12:39:06;13.90;92.30
34406;DHT22;20658;45.630;8.886;2023-11-21T12:41:41;13.90;92.30
34406;DHT22;20658;45.630;8.886;2023-11-21T12:44:14;13.80;92.40
34406;DHT22;20658;45.630;8.886;2023-11-21T12:46:43;13.90;92.90
34406;DHT22;20658;45.630;8.886;2023-11-21T12:49:16;13.90;92.10
34406;DHT22;20658;45.630;8.886;2023-11-21T12:51:50;13.90;91.80
34406;DHT22;20658;45.630;8.886;2023-11-21T12:54:27;14.30;91.90
34406;DHT22;20658;45.630;8.886;2023-11-21T12:57:01;13.90;91.90
34406;DHT22;20658;45.630;8.886;2023-11-21T12:59:38;13.90;91.90
34406;DHT22;20658;45.630;8.886;2023-11-21T13:02:13;14.00;91.60
34406;DHT22;20658;45.630;8.886;2023-11-21T13:04:52;14.00;90.30
34406;DHT22;20658;45.630;8.886;2023-11-21T13:07:20;14.00;90.30
34406;DHT22;20658;45.630;8.886;2023-11-21T13:09:55;14.00;90.30
34406;DHT22;20658;45.630;8.886;2023-11-21T13:12:29;13.90;90.40
34406;DHT22;20658;45.630;8.886;2023-11-21T13:15:03;13.90;90.70
34406;DHT22;20658;45.630;8.886;2023-11-21T13:17:38;13.80;90.70
34406;DHT22;20658;45.630;8.886;2023-11-21T13:20:12;13.90;90.90
34406;DHT22;20658;45.630;8.886;2023-11-21T13:22:47;13.90;91.50
34406;DHT22;20658;45.630;8.886;2023-11-21T13:25:23;14.00;91.40
34406;DHT22;20658;45.630;8.886;2023-11-21T13:27:54;13.80;91.40
34406;DHT22;20658;45.630;8.886;2023-11-21T13:30:28;13.80;91.60
34406;DHT22;20658;45.630;8.886;2023-11-21T13:33:06;13.80;92.10
34406;DHT22;20658;45.630;8.886;2023-11-21T13:35:40;14.00;92.30
34406;DHT22;20658;45.630;8.886;2023-11-21T13:38:16;13.60;92.00
34406;DHT22;20658;45.630;8.886;2023-11-21T13:40:56;13.70;93.00
34406;DHT22;20658;45.630;8.886;2023-11-21T13:43:25;13.70;92.60
34406;DHT22;20658;45.630;8.886;2023-11-21T13:45:55;13.80;92.80
34406;DHT22;20658;45.630;8.886;2023-11-21T13:48:33;13.70;91.80
34406;DHT22;20658;45.630;8.886;2023-11-21T13:51:09;13.60;92.00
34406;DHT22;20658;45.630;8.886;2023-11-21T13:53:49;13.50;91.70
34406;DHT22;20658;45.630;8.886;2023-11-21T13:56:20;13.50;92.30
34406;DHT22;20658;45.630;8.886;2023-11-21T13:58:55;13.60;92.70
34406;DHT22;20658;45.630;8.886;2023-11-21T14:01:35;13.50;92.80
34406;DHT22;20658;45.630;8.886;2023-11-21T14:04:26;13.60;92.80
34406;DHT22;20658;45.630;8.886;2023-11-21T14:07:23;13.50;92.60
34406;DHT22;20658;45.630;8.886;2023-11-21T14:10:02;13.50;92.40
34406;DHT22;20658;45.630;8.886;2023-11-21T14:12:38;13.40;92.70
34406;DHT22;20658;45.630;8.886;2023-11-21T14:15:14;13.40;93.00
34406;DHT22;20658;45.630;8.886;2023-11-21T14:17:50;13.40;93.20
34406;DHT22;20658;45.630;8.886;2023-11-21T14:20:24;13.40;93.30
34406;DHT22;20658;45.630;8.886;2023-11-21T14:22:57;13.30;93.30
34406;DHT22;20658;45.630;8.886;2023-11-21T14:25:30;13.30;93.90
34406;DHT22;20658;45.630;8.886;2023-11-21T14:28:06;13.30;94.20
34406;DHT22;20658;45.630;8.886;2023-11-21T14:30:39;13.50;94.30
34406;DHT22;20658;45.630;8.886;2023-11-21T14:33:09;13.20;94.00
34406;DHT22;20658;45.630;8.886;2023-11-21T14:35:43;13.10;93.70
34406;DHT22;20658;45.630;8.886;2023-11-21T14:38:18;13.10;93.90
34406;DHT22;20658;45.630;8.886;2023-11-21T14:40:51;13.00;94.20
34406;DHT22;20658;45.630;8.886;2023-11-21T14:43:26;12.90;94.50
34406;DHT22;20658;45.630;8.886;2023-11-21T14:46:06;12.90;94.90
34406;DHT22;20658;45.630;8.886;2023-11-21T14:48:41;12.80;94.90
34406;DHT22;20658;45.630;8.886;2023-11-21T14:51:10;13.10;95.30
34406;DHT22;20658;45.630;8.886;2023-11-21T14:53:59;12.80;95.30
34406;DHT22;20658;45.630;8.886;2023-11-21T14:56:33;12.90;95.90
34406;DHT22;20658;45.630;8.886;2023-11-21T14:59:07;12.70;96.10
34406;DHT22;20658;45.630;8.886;2023-11-21T15:01:48;12.70;96.30
34406;DHT22;20658;45.630;8.886;2023-11-21T15:04:26;12.90;96.80
34406;DHT22;20658;45.630;8.886;2023-11-21T15:07:07;12.50;97.10
34406;DHT22;20658;45.630;8.886;2023-11-21T15:09:40;12.50;97.60
34406;DHT22;20658;45.630;8.886;2023-11-21T15:12:10;12.40;98.00
34406;DHT22;20658;45.630;8.886;2023-11-21T15:14:50;12.40;98.50
34406;DHT22;20658;45.630;8.886;2023-11-21T15:17:27;12.30;98.90
34406;DHT22;20658;45.630;8.886;2023-11-21T15:20:03;12.20;98.80
34406;DHT22;20658;45.630;8.886;2023-11-21T15:22:38;12.20;99.50
34406;DHT22;20658;45.630;8.886;2023-11-21T15:25:12;12.20;99.90
34406;DHT22;20658;45.630;8.886;2023-11-21T15:27:40;12.10;99.90
34406;DHT22;20658;45.630;8.886;2023-11-21T15:30:15;12.00;99.90
34406;DHT22;20658;45.630;8.886;2023-11-21T15:32:55;11.90;99.90
34406;DHT22;20658;45.630;8.886;2023-11-21T15:35:28;11.80;99.90
34406;DHT22;20658;45.630;8.886;2023-11-21T15:37:57;11.80;99.90
34406;DHT22;20658;45.630;8.886;2023-11-21T15:40:31;11.70;99.90
34406;DHT22;20658;45.630;8.886;2023-11-21T15:43:04;11.60;99.90
34406;DHT22;20658;45.630;8.886;2023-11-21T15:45:40;11.60;99.90
34406;DHT22;20658;45.630;8.886;2023-11-21T15:48:13;11.40;99.90
34406;DHT22;20658;45.630;8.886;2023-11-21T15:50:48;11.40;99.90
34406;DHT22;20658;45.630;8.886;2023-11-21T15:53:24;11.30;99.90
34406;DHT22;20658;45.630;8.886;2023-11-21T15:55:57;11.20;99.90
34406;DHT22;20658;45.630;8.886;2023-11-21T15:58:25;11.40;99.90
34406;DHT22;20658;45.630;8.886;2023-11-21T16:00:55;11.20;99.90
34406;DHT22;20658;45.630;8.886;2023-11-21T16:03:29;11.10;99.90
34406;DHT22;20658;45.630;8.886;2023-11-21T16:06:05;11.10;99.90
34406;DHT22;20658;45.630;8.886;2023-11-21T16:08:36;11.00;99.90
34406;DHT22;20658;45.630;8.886;2023-11-21T16:11:10;10.90;99.90
34406;DHT22;20658;45.630;8.886;2023-11-21T16:13:38;10.90;99.90
34406;DHT22;20658;45.630;8.886;2023-11-21T16:16:14;10.80;99.90
34406;DHT22;20658;45.630;8.886;2023-11-21T16:18:49;10.70;99.90
34406;DHT22;20658;45.630;8.886;2023-11-21T16:21:23;10.70;99.90
34406;DHT22;20658;45.630;8.886;2023-11-21T16:23:56;10.60;99.90